Time;durP1;ratioP1;P1;durP2;ratioP2;P2;SDS_P1;SDS_P2;PMS_P1;PMS_P2;Temp;Humidity;BMP_temperature;BMP_pressure;BME280_temperature;BME280_humidity;BME280_pressure;Samples;Min_cycle;Max_cycle;Signal;HPM_P1;HPM_P2
2024/03/11 00:00:38;;;;;;;2.05;1.48;;;4.90;99.90;;;;;;5053888;28;20297;-59
2024/03/11 00:03:05;;;;;;;14.60;2.15;;;4.90;99.90;;;;;;5053752;28;20190;-60
2024/03/11 00:05:31;;;;;;;2.45;1.80;;;4.90;99.90;;;;;;5053811;28;20178;-59
2024/03/11 00:07:58;;;;;;;7.90;1.33;;;4.90;99.90;;;;;;5053077;28;20162;-60
2024/03/11 00:10:24;;;;;;;5.32;1.60;;;4.90;99.90;;;;;;5053935;28;20408;-60
2024/03/11 00:12:51;;;;;;;4.18;1.92;;;5.00;99.90;;;;;;5053545;28;20217;-60
2024/03/11 00:15:20;;;;;;;13.10;2.33;;;4.90;99.90;;;;;;5053619;28;20176;-59
2024/03/11 00:17:47;;;;;;;1.20;1.05;;;4.90;99.90;;;;;;5053465;28;20182;-60
2024/03/11 00:20:13;;;;;;;1.73;0.73;;;4.80;99.90;;;;;;5053267;28;20202;-60
2024/03/11 00:22:39;;;;;;;1.27;0.60;;;4.60;99.80;;;;;;5053458;28;20190;-59
2024/03/11 00:25:05;;;;;;;1.43;0.97;;;4.50;99.80;;;;;;5053476;28;20765;-60
2024/03/11 00:27:31;;;;;;;0.80;0.80;;;4.40;99.70;;;;;;5053410;28;20170;-59
2024/03/11 00:29:57;;;;;;;0.40;0.40;;;4.30;99.60;;;;;;5053136;28;20177;-59
2024/03/11 00:32:24;;;;;;;13.50;1.40;;;4.20;99.70;;;;;;5052988;28;20779;-60
2024/03/11 00:34:51;;;;;;;0.68;0.68;;;4.00;99.90;;;;;;5053210;28;20269;-60
2024/03/11 00:37:18;;;;;;;2.70;0.80;;;4.00;99.90;;;;;;5053237;28;20685;-60
2024/03/11 00:39:43;;;;;;;9.32;1.05;;;3.90;99.90;;;;;;5053039;28;20300;-60
2024/03/11 00:42:09;;;;;;;6.67;1.60;;;4.00;99.90;;;;;;5053233;28;20190;-59
2024/03/11 00:44:35;;;;;;;1.80;1.37;;;4.00;99.90;;;;;;5053207;28;20628;-59
2024/03/11 00:47:02;;;;;;;2.60;1.03;;;4.00;99.90;;;;;;5053085;28;20162;-60
2024/03/11 00:49:28;;;;;;;1.00;1.00;;;4.00;99.90;;;;;;5052683;28;20166;-59
2024/03/11 00:51:54;;;;;;;2.50;0.87;;;3.80;99.90;;;;;;5052939;28;20220;-59
2024/03/11 00:54:22;;;;;;;0.80;0.80;;;3.70;99.90;;;;;;5052927;28;20257;-59
2024/03/11 00:56:47;;;;;;;0.82;0.65;;;3.70;99.90;;;;;;5053012;28;20415;-60
2024/03/11 00:59:14;;;;;;;0.70;0.70;;;3.70;99.90;;;;;;5052526;28;20723;-59
2024/03/11 01:01:40;;;;;;;1.35;1.10;;;3.70;99.90;;;;;;5052749;28;20319;-60
2024/03/11 01:04:09;;;;;;;3.70;1.30;;;3.60;99.90;;;;;;5052610;28;20280;-60
2024/03/11 01:06:36;;;;;;;2.97;1.23;;;3.50;99.90;;;;;;5052708;28;20174;-59
2024/03/11 01:09:02;;;;;;;1.35;1.25;;;3.70;99.90;;;;;;5052267;28;20190;-60
2024/03/11 01:11:29;;;;;;;1.08;0.98;;;3.70;99.90;;;;;;5052530;28;20709;-59
2024/03/11 01:13:54;;;;;;;0.82;0.82;;;3.60;99.90;;;;;;5052555;28;20178;-60
2024/03/11 01:16:21;;;;;;;2.17;1.07;;;3.70;99.90;;;;;;5052377;28;20166;-59
2024/03/11 01:18:47;;;;;;;0.82;0.82;;;3.70;99.90;;;;;;5051356;28;20662;-60
2024/03/11 01:21:20;;;;;;;0.57;0.57;;;3.60;99.90;;;;;;5052574;28;20233;-59
2024/03/11 01:23:47;;;;;;;0.50;0.50;;;3.60;99.90;;;;;;5052489;28;20404;-59
2024/03/11 01:26:13;;;;;;;0.63;0.63;;;3.50;99.90;;;;;;5052396;28;20178;-59
2024/03/11 01:28:39;;;;;;;0.82;0.75;;;3.50;99.90;;;;;;5052055;28;20220;-59
2024/03/11 01:31:05;;;;;;;0.87;0.80;;;3.60;99.90;;;;;;5052063;28;20186;-60
2024/03/11 01:33:31;;;;;;;0.70;0.70;;;3.50;99.90;;;;;;5052391;28;20256;-59
2024/03/11 01:35:57;;;;;;;1.00;0.90;;;3.50;99.90;;;;;;5052330;28;20227;-59
2024/03/11 01:38:23;;;;;;;0.80;0.70;;;3.50;99.90;;;;;;5051742;28;20245;-59
2024/03/11 01:40:48;;;;;;;0.60;0.60;;;3.40;99.90;;;;;;5052067;28;20178;-60
2024/03/11 01:43:17;;;;;;;1.37;0.80;;;3.50;99.90;;;;;;5052063;28;20178;-60
2024/03/11 01:45:43;;;;;;;1.80;1.58;;;3.50;99.90;;;;;;5051846;28;20170;-60
2024/03/11 01:48:10;;;;;;;1.30;1.20;;;3.50;99.90;;;;;;5051704;28;20178;-59
2024/03/11 01:50:39;;;;;;;0.82;0.82;;;3.60;99.90;;;;;;5051960;28;20703;-59
2024/03/11 01:53:05;;;;;;;2.58;0.88;;;3.60;99.90;;;;;;5051815;28;20218;-59
2024/03/11 01:55:32;;;;;;;0.63;0.57;;;3.50;99.90;;;;;;5051833;28;20196;-59
2024/03/11 01:58:00;;;;;;;2.05;1.10;;;3.50;99.90;;;;;;5051383;28;20185;-60
2024/03/11 02:00:26;;;;;;;0.95;0.85;;;3.40;99.90;;;;;;5051616;28;20214;-60
2024/03/11 02:02:56;;;;;;;0.50;0.50;;;3.50;99.90;;;;;;5051808;28;20205;-60
2024/03/11 02:05:25;;;;;;;0.85;0.85;;;3.60;99.90;;;;;;5051848;28;20495;-60
2024/03/11 02:08:00;;;;;;;0.90;0.90;;;3.50;99.90;;;;;;5051506;28;20609;-60
2024/03/11 02:10:27;;;;;;;1.42;0.85;;;3.50;99.90;;;;;;5051562;28;20171;-60
2024/03/11 02:12:53;;;;;;;1.10;1.05;;;3.40;99.90;;;;;;5051323;28;20221;-60
2024/03/11 02:15:19;;;;;;;0.70;0.60;;;3.50;99.90;;;;;;5051515;28;20612;-59
2024/03/11 02:17:45;;;;;;;0.67;0.63;;;3.40;99.90;;;;;;5051366;28;20511;-60
2024/03/11 02:20:16;;;;;;;0.60;0.55;;;3.40;99.90;;;;;;5051230;28;20451;-59
2024/03/11 02:22:50;;;;;;;0.80;0.80;;;3.30;99.90;;;;;;5051387;28;20204;-60
2024/03/11 02:25:20;;;;;;;0.73;0.73;;;3.40;99.90;;;;;;5051390;28;20169;-60
2024/03/11 02:27:49;;;;;;;0.70;0.70;;;3.40;99.90;;;;;;5051280;28;20252;-59
2024/03/11 02:30:18;;;;;;;0.52;0.52;;;3.40;99.90;;;;;;5050934;28;20206;-60
2024/03/11 02:32:44;;;;;;;0.77;0.77;;;3.30;99.90;;;;;;5051324;28;20197;-59
2024/03/11 02:35:10;;;;;;;0.85;0.85;;;3.40;99.90;;;;;;5051327;28;20181;-60
2024/03/11 02:37:36;;;;;;;0.80;0.80;;;3.40;99.90;;;;;;5051156;28;20173;-59
2024/03/11 02:40:09;;;;;;;1.13;1.00;;;3.40;99.90;;;;;;5051080;28;20714;-59
2024/03/11 02:42:35;;;;;;;0.75;0.75;;;3.40;99.90;;;;;;5051249;28;20283;-59
2024/03/11 02:45:05;;;;;;;0.80;0.80;;;3.40;99.90;;;;;;5051227;28;20174;-59
2024/03/11 02:47:34;;;;;;;1.77;1.10;;;3.50;99.90;;;;;;5051236;28;20621;-60
2024/03/11 02:50:00;;;;;;;0.98;0.90;;;3.60;99.90;;;;;;5050992;28;20177;-60
2024/03/11 02:52:26;;;;;;;1.45;1.15;;;3.50;99.90;;;;;;5050978;28;20831;-59
2024/03/11 02:54:53;;;;;;;1.10;1.00;;;3.40;99.90;;;;;;5051094;28;20178;-59
2024/03/11 02:57:19;;;;;;;0.65;0.60;;;3.30;99.90;;;;;;5050977;28;20545;-59
2024/03/11 02:59:45;;;;;;;2.97;1.33;;;3.30;99.90;;;;;;5050672;28;20285;-59
2024/03/11 03:02:11;;;;;;;1.20;1.10;;;3.20;99.90;;;;;;5049966;28;20304;-59
2024/03/11 03:04:40;;;;;;;0.80;0.80;;;3.30;99.90;;;;;;5050915;28;20261;-59
2024/03/11 03:07:14;;;;;;;0.60;0.60;;;3.30;99.90;;;;;;5050977;28;20846;-59
2024/03/11 03:09:40;;;;;;;1.13;1.00;;;3.30;99.90;;;;;;5050794;28;20179;-59
2024/03/11 03:12:09;;;;;;;1.07;1.00;;;3.30;99.90;;;;;;5050838;28;20208;-59
2024/03/11 03:14:36;;;;;;;0.80;0.70;;;3.30;99.90;;;;;;5050955;28;20185;-59
2024/03/11 03:17:01;;;;;;;0.80;0.80;;;3.20;99.90;;;;;;5050845;28;20195;-59
2024/03/11 03:19:27;;;;;;;0.70;0.70;;;3.10;99.90;;;;;;5050399;28;20201;-59
2024/03/11 03:21:52;;;;;;;1.00;1.00;;;3.00;99.90;;;;;;5050625;28;20218;-59
2024/03/11 03:24:18;;;;;;;0.80;0.80;;;3.00;99.90;;;;;;5050829;28;20727;-59
2024/03/11 03:26:44;;;;;;;4.70;0.80;;;3.00;99.90;;;;;;5050955;28;20166;-59
2024/03/11 03:29:11;;;;;;;0.97;0.97;;;3.10;99.90;;;;;;5050582;28;20636;-59
2024/03/11 03:31:37;;;;;;;0.75;0.75;;;3.00;99.90;;;;;;5050718;28;20743;-59
2024/03/11 03:34:04;;;;;;;1.67;0.70;;;3.10;99.90;;;;;;5050638;28;20285;-60
2024/03/11 03:36:30;;;;;;;0.82;0.82;;;3.30;99.90;;;;;;5050718;28;20413;-59
2024/03/11 03:38:56;;;;;;;1.40;0.82;;;3.30;99.90;;;;;;5050476;28;20210;-59
2024/03/11 03:41:22;;;;;;;1.03;1.00;;;3.20;99.90;;;;;;5050888;28;20256;-59
2024/03/11 03:43:49;;;;;;;1.15;0.80;;;3.30;99.90;;;;;;5054270;28;20184;-59
2024/03/11 03:46:17;;;;;;;1.70;1.60;;;3.40;99.90;;;;;;5054251;28;20185;-59
2024/03/11 03:48:42;;;;;;;2.28;1.35;;;3.40;99.90;;;;;;5053771;28;20174;-60
2024/03/11 03:51:08;;;;;;;2.20;2.10;;;3.30;99.90;;;;;;5052600;28;20216;-59
2024/03/11 03:53:34;;;;;;;1.60;1.50;;;3.40;99.90;;;;;;5054075;28;20173;-59
2024/03/11 03:56:00;;;;;;;2.00;1.20;;;3.50;99.90;;;;;;5054074;28;20167;-59
2024/03/11 03:58:25;;;;;;;1.73;1.57;;;3.70;99.90;;;;;;5053628;28;20170;-60
2024/03/11 04:00:51;;;;;;;1.33;1.23;;;3.70;99.90;;;;;;5053762;28;20206;-60
2024/03/11 04:03:18;;;;;;;2.30;2.03;;;3.70;99.90;;;;;;5053809;28;20491;-59
2024/03/11 04:05:49;;;;;;;1.45;1.35;;;3.70;99.90;;;;;;5053676;28;20640;-59
2024/03/11 04:08:15;;;;;;;1.20;1.10;;;3.80;99.90;;;;;;5053516;28;20182;-59
2024/03/11 04:10:41;;;;;;;1.50;1.20;;;3.80;99.90;;;;;;5053660;28;20174;-59
2024/03/11 04:13:07;;;;;;;1.93;1.43;;;3.80;99.90;;;;;;5053675;28;20528;-59
2024/03/11 04:15:32;;;;;;;1.10;1.10;;;3.80;99.90;;;;;;5053810;28;20259;-60
2024/03/11 04:18:03;;;;;;;1.13;1.03;;;3.70;99.90;;;;;;5053384;28;20178;-60
2024/03/11 04:20:29;;;;;;;1.15;1.05;;;3.70;99.90;;;;;;5053425;28;20202;-59
2024/03/11 04:22:55;;;;;;;1.05;0.90;;;3.70;99.90;;;;;;5053596;28;20255;-59
2024/03/11 04:25:23;;;;;;;1.17;0.85;;;3.80;99.90;;;;;;5053584;28;20182;-59
2024/03/11 04:27:50;;;;;;;0.90;0.90;;;3.90;99.90;;;;;;5053257;28;20669;-59
2024/03/11 04:30:28;;;;;;;0.70;0.70;;;3.90;99.90;;;;;;5053270;28;20216;-59
2024/03/11 04:32:54;;;;;;;1.10;1.10;;;3.90;99.90;;;;;;5053407;28;20584;-59
2024/03/11 04:35:26;;;;;;;1.23;1.10;;;4.00;99.90;;;;;;5053497;28;20170;-59
2024/03/11 04:37:58;;;;;;;0.65;0.60;;;4.00;99.90;;;;;;5053024;28;20808;-60
2024/03/11 04:40:35;;;;;;;1.02;0.93;;;4.10;99.90;;;;;;5053233;28;20271;-59
2024/03/11 04:43:01;;;;;;;0.70;0.70;;;4.10;99.90;;;;;;5052958;28;20202;-59
2024/03/11 04:45:27;;;;;;;1.13;1.00;;;4.10;99.90;;;;;;5053098;28;20197;-60
2024/03/11 04:47:57;;;;;;;1.02;0.95;;;4.20;99.90;;;;;;5052760;28;20174;-60
2024/03/11 04:50:26;;;;;;;4.40;1.25;;;4.20;99.90;;;;;;5053083;28;20240;-60
2024/03/11 04:52:55;;;;;;;5.85;2.08;;;4.30;99.90;;;;;;5052165;28;20256;-60
2024/03/11 04:55:20;;;;;;;1.13;1.13;;;4.30;99.90;;;;;;5052588;28;20174;-59
2024/03/11 04:57:46;;;;;;;1.73;1.63;;;4.30;99.90;;;;;;5052584;28;20181;-59
2024/03/11 05:00:13;;;;;;;6.63;1.97;;;4.30;99.90;;;;;;5052714;28;20202;-59
2024/03/11 05:02:39;;;;;;;2.05;1.95;;;4.30;99.90;;;;;;5052809;28;20693;-59
2024/03/11 05:05:09;;;;;;;1.95;1.60;;;4.20;99.90;;;;;;5052835;28;20183;-60
2024/03/11 05:07:35;;;;;;;1.85;1.73;;;4.30;99.90;;;;;;5052719;28;20174;-59
2024/03/11 05:10:01;;;;;;;3.03;1.15;;;4.40;99.90;;;;;;5052380;28;20721;-60
2024/03/11 05:12:27;;;;;;;1.10;1.00;;;4.30;99.90;;;;;;5081472;22;20303;-59
2024/03/11 05:14:52;;;;;;;1.33;0.90;;;4.40;99.90;;;;;;5072493;28;20263;-59
2024/03/11 05:17:18;;;;;;;1.17;1.03;;;4.50;99.90;;;;;;5054686;28;20201;-59
2024/03/11 05:19:46;;;;;;;0.70;0.70;;;4.50;99.90;;;;;;5054004;28;20510;-59
2024/03/11 05:22:12;;;;;;;1.20;1.10;;;4.50;99.90;;;;;;5072029;28;20443;-59
2024/03/11 05:24:38;;;;;;;0.80;0.80;;;4.50;99.90;;;;;;5072305;28;20487;-59
2024/03/11 05:27:06;;;;;;;1.30;1.30;;;4.40;99.90;;;;;;5072160;28;20173;-60
2024/03/11 05:29:32;;;;;;;0.80;0.80;;;4.40;99.90;;;;;;5071932;28;20184;-59
2024/03/11 05:31:58;;;;;;;1.08;0.98;;;4.50;99.90;;;;;;5072019;28;20221;-59
2024/03/11 05:34:24;;;;;;;1.10;1.00;;;4.60;99.90;;;;;;5072168;28;20204;-59
2024/03/11 05:36:50;;;;;;;0.70;0.70;;;4.60;99.90;;;;;;5071843;28;20408;-59
2024/03/11 05:39:15;;;;;;;1.37;1.00;;;4.70;99.90;;;;;;5071677;28;20250;-59
2024/03/11 05:41:43;;;;;;;2.73;1.77;;;4.60;99.90;;;;;;5071990;28;20158;-60
2024/03/11 05:44:09;;;;;;;1.42;1.33;;;4.50;99.90;;;;;;5071851;28;20162;-59
2024/03/11 05:46:35;;;;;;;1.10;1.02;;;4.50;99.90;;;;;;5071831;28;20185;-59
2024/03/11 05:49:00;;;;;;;1.00;1.00;;;4.50;99.90;;;;;;5071543;28;20173;-60
2024/03/11 05:51:31;;;;;;;4.73;2.83;;;4.50;99.90;;;;;;5071756;28;20823;-60
2024/03/11 05:53:58;;;;;;;11.05;4.47;;;4.60;99.90;;;;;;5071847;28;20209;-59
2024/03/11 05:56:25;;;;;;;7.03;3.45;;;4.60;99.90;;;;;;5071514;28;20181;-60
2024/03/11 05:58:51;;;;;;;4.15;3.75;;;4.60;99.90;;;;;;5071387;28;20181;-60
2024/03/11 06:01:17;;;;;;;5.80;4.00;;;4.60;99.90;;;;;;5071601;28;20697;-59
2024/03/11 06:03:43;;;;;;;2.30;2.10;;;4.60;99.90;;;;;;5071578;28;20307;-60
2024/03/11 06:06:09;;;;;;;6.47;2.80;;;4.70;99.90;;;;;;5071064;28;20457;-59
2024/03/11 06:08:35;;;;;;;2.42;2.22;;;4.80;99.90;;;;;;5071301;28;20435;-59
2024/03/11 06:11:01;;;;;;;1.47;1.37;;;4.80;99.90;;;;;;5071514;28;20201;-59
2024/03/11 06:13:28;;;;;;;1.60;1.50;;;4.80;99.90;;;;;;5071334;28;20213;-59
2024/03/11 06:15:54;;;;;;;1.60;1.50;;;4.80;99.90;;;;;;5071508;28;20771;-59
2024/03/11 06:18:21;;;;;;;1.88;1.63;;;4.90;99.90;;;;;;5071106;28;20175;-59
2024/03/11 06:20:46;;;;;;;2.42;2.22;;;5.00;99.90;;;;;;5071837;28;20688;-59
2024/03/11 06:23:12;;;;;;;2.57;2.37;;;5.10;99.90;;;;;;5071371;28;20205;-60
2024/03/11 06:25:37;;;;;;;1.87;1.70;;;5.10;99.90;;;;;;5071268;28;20198;-59
2024/03/11 06:28:04;;;;;;;4.13;2.50;;;5.10;99.90;;;;;;5071012;28;20175;-59
2024/03/11 06:30:30;;;;;;;1.90;1.75;;;5.10;99.90;;;;;;5071247;28;20169;-59
2024/03/11 06:32:56;;;;;;;2.92;2.70;;;5.20;99.90;;;;;;5071164;28;20268;-59
2024/03/11 06:35:21;;;;;;;3.27;2.67;;;5.30;99.90;;;;;;5071263;28;20741;-60
2024/03/11 06:37:47;;;;;;;2.97;2.37;;;5.40;99.40;;;;;;5071065;28;20201;-59
2024/03/11 06:40:21;;;;;;;1.60;1.50;;;5.30;99.20;;;;;;5071006;28;20197;-60
2024/03/11 06:42:48;;;;;;;4.03;1.58;;;5.20;99.30;;;;;;5071169;28;20188;-59
2024/03/11 06:45:15;;;;;;;1.88;1.70;;;5.10;99.90;;;;;;5071134;28;20185;-59
2024/03/11 06:47:41;;;;;;;1.00;1.00;;;5.20;99.90;;;;;;5070935;28;20171;-59
2024/03/11 06:50:08;;;;;;;0.90;0.90;;;5.30;99.90;;;;;;5071138;28;20189;-60
2024/03/11 06:52:34;;;;;;;5.10;2.08;;;5.20;99.90;;;;;;5070852;28;20443;-59
2024/03/11 06:54:59;;;;;;;2.70;1.58;;;5.20;99.90;;;;;;5064599;28;20270;-60
2024/03/11 06:57:25;;;;;;;1.93;1.70;;;5.30;99.90;;;;;;5070847;28;20635;-60
2024/03/11 06:59:51;;;;;;;4.43;1.90;;;5.50;99.90;;;;;;5070816;28;20248;-60
2024/03/11 07:02:20;;;;;;;3.63;1.60;;;5.60;99.90;;;;;;5069541;28;20199;-59
2024/03/11 07:04:46;;;;;;;1.65;1.50;;;5.80;99.20;;;;;;5070896;28;20158;-59
2024/03/11 07:07:12;;;;;;;2.05;1.95;;;6.00;99.50;;;;;;5070943;28;20230;-59
2024/03/11 07:09:38;;;;;;;2.50;2.20;;;6.20;99.10;;;;;;5070564;28;20201;-59
2024/03/11 07:12:05;;;;;;;2.70;1.98;;;7.20;99.90;;;;;;5070643;28;20205;-60
2024/03/11 07:14:31;;;;;;;1.70;1.60;;;8.50;99.20;;;;;;5070887;28;20185;-60
2024/03/11 07:16:57;;;;;;;2.20;2.10;;;9.50;97.10;;;;;;5071955;28;20169;-60
2024/03/11 07:19:25;;;;;;;3.15;2.20;;;9.80;95.50;;;;;;5074450;28;20205;-60
2024/03/11 07:21:51;;;;;;;2.07;1.57;;;9.60;94.40;;;;;;5074580;28;20201;-60
2024/03/11 07:24:19;;;;;;;4.33;2.20;;;9.30;94.20;;;;;;5074542;28;20766;-60
2024/03/11 07:26:45;;;;;;;3.25;2.53;;;9.20;94.70;;;;;;5074561;28;20684;-60
2024/03/11 07:29:11;;;;;;;2.27;1.97;;;9.20;94.30;;;;;;5074139;28;20201;-60
2024/03/11 07:31:38;;;;;;;4.40;2.10;;;9.40;94.10;;;;;;5074223;28;20713;-60
2024/03/11 07:34:04;;;;;;;1.93;1.47;;;9.80;94.20;;;;;;5056359;28;20181;-60
2024/03/11 07:36:30;;;;;;;3.50;2.43;;;10.10;93.40;;;;;;5074010;28;20924;-60
2024/03/11 07:38:55;;;;;;;2.60;1.90;;;10.20;93.10;;;;;;5073967;28;20415;-60
2024/03/11 07:41:24;;;;;;;1.47;1.37;;;10.30;93.00;;;;;;5073901;28;20410;-60
2024/03/11 07:43:51;;;;;;;1.87;1.77;;;10.50;93.20;;;;;;5074059;28;20181;-60
2024/03/11 07:46:17;;;;;;;1.50;1.40;;;10.80;93.30;;;;;;5074130;28;20418;-60
2024/03/11 07:48:42;;;;;;;3.17;2.87;;;11.20;92.30;;;;;;5073860;28;20396;-60
2024/03/11 07:51:09;;;;;;;3.70;3.07;;;11.40;91.70;;;;;;5073991;28;20176;-60
2024/03/11 07:53:35;;;;;;;5.10;4.20;;;11.20;91.50;;;;;;5073839;28;20697;-60
2024/03/11 07:56:03;;;;;;;5.60;4.87;;;10.80;91.40;;;;;;5074084;28;20407;-60
2024/03/11 07:58:29;;;;;;;4.70;4.20;;;10.40;91.80;;;;;;5073520;28;20457;-60
2024/03/11 08:00:55;;;;;;;6.83;4.97;;;10.10;92.50;;;;;;5074150;28;20455;-60
2024/03/11 08:03:21;;;;;;;5.17;4.60;;;10.10;93.30;;;;;;5056121;28;20550;-60
2024/03/11 08:05:46;;;;;;;4.33;3.87;;;10.10;93.30;;;;;;5073759;28;20173;-60
2024/03/11 08:08:12;;;;;;;7.80;4.93;;;10.00;93.20;;;;;;5073489;28;20417;-60
2024/03/11 08:10:38;;;;;;;9.80;6.00;;;10.10;93.80;;;;;;5073780;28;20180;-60
2024/03/11 08:13:04;;;;;;;7.70;5.50;;;10.00;93.80;;;;;;5073707;28;20208;-60
2024/03/11 08:15:30;;;;;;;4.27;3.57;;;9.90;94.30;;;;;;5072865;28;20610;-60
2024/03/11 08:17:55;;;;;;;3.80;3.47;;;9.90;94.50;;;;;;5073120;28;20494;-60
2024/03/11 08:20:21;;;;;;;3.63;2.30;;;9.70;94.90;;;;;;5072156;28;20225;-62
2024/03/11 08:22:52;;;;;;;4.73;3.40;;;9.60;95.60;;;;;;5073337;28;20186;-60
2024/03/11 08:25:22;;;;;;;4.50;2.92;;;9.60;95.80;;;;;;5073355;28;20169;-60
2024/03/11 08:27:54;;;;;;;2.60;2.40;;;9.40;95.40;;;;;;5072935;28;20264;-61
2024/03/11 08:30:27;;;;;;;3.78;2.90;;;9.20;95.70;;;;;;5073371;28;20185;-61
2024/03/11 08:32:52;;;;;;;4.20;2.25;;;9.20;96.00;;;;;;5073222;28;20251;-60
2024/03/11 08:35:23;;;;;;;4.67;1.97;;;9.10;96.10;;;;;;5073302;28;20174;-60
2024/03/11 08:37:49;;;;;;;7.68;2.60;;;9.00;96.90;;;;;;5073028;28;20673;-60
2024/03/11 08:40:16;;;;;;;2.85;1.92;;;9.00;96.90;;;;;;5072896;28;20209;-60
2024/03/11 08:42:51;;;;;;;3.08;2.65;;;9.20;97.00;;;;;;5072806;28;20679;-60
2024/03/11 08:45:23;;;;;;;2.92;2.20;;;9.40;97.20;;;;;;5072962;28;20177;-59
2024/03/11 08:47:50;;;;;;;2.55;2.13;;;9.70;97.10;;;;;;5073058;28;20165;-59
2024/03/11 08:50:16;;;;;;;2.15;1.95;;;10.10;96.70;;;;;;5072845;28;20257;-60
2024/03/11 08:52:49;;;;;;;2.83;2.10;;;10.40;96.20;;;;;;5072769;28;20284;-59
2024/03/11 08:55:15;;;;;;;2.13;2.03;;;10.80;95.20;;;;;;5073064;28;20419;-60
2024/03/11 08:57:42;;;;;;;1.40;1.20;;;10.90;94.20;;;;;;5072478;28;20454;-60
2024/03/11 09:00:12;;;;;;;1.90;1.80;;;10.90;93.60;;;;;;5072589;28;20455;-60
2024/03/11 09:02:41;;;;;;;3.83;1.70;;;10.80;93.10;;;;;;5072658;28;20440;-59
2024/03/11 09:05:10;;;;;;;1.33;1.17;;;10.60;93.60;;;;;;5072854;28;20880;-60
2024/03/11 09:07:35;;;;;;;1.30;1.20;;;10.70;94.00;;;;;;5072903;28;20415;-60
2024/03/11 09:10:03;;;;;;;0.50;0.50;;;11.10;93.40;;;;;;5072356;28;20861;-60
2024/03/11 09:12:28;;;;;;;0.90;0.80;;;11.30;92.40;;;;;;5072404;28;20529;-60
2024/03/11 09:14:55;;;;;;;0.90;0.77;;;11.70;92.10;;;;;;5072466;28;20536;-60
2024/03/11 09:17:21;;;;;;;0.63;0.60;;;11.70;91.70;;;;;;5072354;28;20627;-60
2024/03/11 09:19:47;;;;;;;1.10;1.00;;;11.70;90.70;;;;;;5071909;28;20504;-59
2024/03/11 09:22:16;;;;;;;0.80;0.67;;;11.40;90.20;;;;;;5072274;28;20193;-60
2024/03/11 09:24:41;;;;;;;2.67;0.80;;;11.00;91.30;;;;;;5072467;28;20196;-60
2024/03/11 09:27:07;;;;;;;0.80;0.70;;;10.90;91.50;;;;;;5072241;28;20487;-60
2024/03/11 09:29:37;;;;;;;1.77;0.90;;;10.70;90.90;;;;;;5072084;28;20203;-60
2024/03/11 09:32:03;;;;;;;3.57;1.00;;;10.70;91.70;;;;;;5071995;28;20463;-59
2024/03/11 09:34:29;;;;;;;0.80;0.80;;;10.70;90.80;;;;;;5071893;28;20423;-60
2024/03/11 09:36:55;;;;;;;0.70;0.70;;;10.70;90.80;;;;;;5072300;28;20416;-60
2024/03/11 09:39:21;;;;;;;2.30;0.80;;;10.80;91.00;;;;;;5070997;28;20253;-60
2024/03/11 09:41:50;;;;;;;3.00;0.70;;;11.00;91.00;;;;;;5071862;28;20462;-60
2024/03/11 09:44:20;;;;;;;0.90;0.90;;;10.90;90.10;;;;;;5071654;28;20401;-60
2024/03/11 09:46:50;;;;;;;1.88;0.70;;;10.80;89.80;;;;;;5053863;28;20173;-60
2024/03/11 09:49:19;;;;;;;0.60;0.60;;;10.80;90.30;;;;;;5071720;28;20177;-60
2024/03/11 09:51:46;;;;;;;1.03;1.03;;;10.70;90.00;;;;;;5071768;28;20315;-60
2024/03/11 09:54:13;;;;;;;0.90;0.80;;;10.60;90.50;;;;;;5071857;28;20404;-60
2024/03/11 09:56:47;;;;;;;0.80;0.80;;;10.70;90.70;;;;;;5071898;28;20174;-59
2024/03/11 09:59:24;;;;;;;1.63;0.82;;;10.60;90.40;;;;;;5071357;28;21101;-60
2024/03/11 10:01:54;;;;;;;1.48;1.15;;;10.50;90.10;;;;;;5071651;28;20594;-60
2024/03/11 10:04:25;;;;;;;1.48;1.00;;;10.50;90.40;;;;;;5071481;28;20170;-57
2024/03/11 10:06:59;;;;;;;1.17;1.13;;;10.50;90.50;;;;;;5071727;28;20169;-59
2024/03/11 10:09:31;;;;;;;1.88;0.80;;;10.40;90.70;;;;;;5070833;28;20590;-58
2024/03/11 10:12:08;;;;;;;0.87;0.87;;;10.40;90.60;;;;;;5070844;28;20224;-59
2024/03/11 10:14:38;;;;;;;2.08;0.70;;;10.40;90.70;;;;;;5071516;28;20418;-59
2024/03/11 10:17:20;;;;;;;1.00;0.70;;;10.40;90.40;;;;;;5071343;28;20208;-59
2024/03/11 10:19:47;;;;;;;0.60;0.60;;;10.60;90.50;;;;;;5071056;28;20916;-59
2024/03/11 10:22:22;;;;;;;2.03;0.77;;;10.90;90.70;;;;;;5071315;28;20427;-59
2024/03/11 10:24:48;;;;;;;0.93;0.80;;;11.00;90.00;;;;;;5071681;28;20403;-60
2024/03/11 10:27:28;;;;;;;0.77;0.70;;;11.20;89.50;;;;;;5071269;28;20472;-59
2024/03/11 10:29:54;;;;;;;1.50;0.87;;;11.30;89.00;;;;;;5071260;28;20180;-59
2024/03/11 10:32:42;;;;;;;1.03;0.70;;;11.40;90.10;;;;;;5071455;28;20420;-58
2024/03/11 10:35:11;;;;;;;0.90;0.90;;;11.40;88.50;;;;;;5071341;28;20419;-58
2024/03/11 10:37:43;;;;;;;0.70;0.70;;;11.30;88.80;;;;;;5071495;28;20403;-60
2024/03/11 10:40:17;;;;;;;0.70;0.70;;;11.40;87.80;;;;;;5071226;28;20444;-61
2024/03/11 10:42:52;;;;;;;1.60;1.00;;;11.70;86.80;;;;;;5071332;28;20424;-61
2024/03/11 10:45:35;;;;;;;2.30;0.87;;;12.20;85.80;;;;;;5071238;28;20412;-59
2024/03/11 10:48:01;;;;;;;0.60;0.60;;;12.40;84.30;;;;;;5070921;28;20407;-59
2024/03/11 10:50:33;;;;;;;1.07;0.70;;;12.50;82.60;;;;;;5071684;28;20412;-59
2024/03/11 10:52:59;;;;;;;0.77;0.77;;;12.30;82.90;;;;;;5075286;28;20427;-59
2024/03/11 10:55:34;;;;;;;4.87;1.07;;;12.30;83.20;;;;;;5075143;28;20502;-59
2024/03/11 10:58:01;;;;;;;0.80;0.80;;;12.30;83.40;;;;;;5074901;28;20426;-60
2024/03/11 11:00:33;;;;;;;0.97;0.83;;;12.30;83.90;;;;;;5075119;28;20455;-59
2024/03/11 11:03:12;;;;;;;1.73;0.60;;;12.30;83.80;;;;;;5074932;28;20424;-59
2024/03/11 11:05:43;;;;;;;3.03;0.70;;;12.30;83.30;;;;;;5075136;28;20719;-60
2024/03/11 11:08:12;;;;;;;0.80;0.70;;;12.40;83.50;;;;;;5073883;28;20500;-60
2024/03/11 11:10:41;;;;;;;0.70;0.70;;;12.50;83.60;;;;;;5074868;28;20411;-59
2024/03/11 11:13:07;;;;;;;0.70;0.70;;;12.40;84.10;;;;;;5094792;22;20582;-59
2024/03/11 11:15:36;;;;;;;2.07;1.47;;;12.10;83.30;;;;;;5074940;28;20981;-59
2024/03/11 11:18:15;;;;;;;2.10;1.77;;;12.00;84.00;;;;;;5073709;28;20466;-59
2024/03/11 11:20:49;;;;;;;1.53;1.43;;;11.90;84.80;;;;;;5074593;28;20868;-60
2024/03/11 11:23:34;;;;;;;3.20;2.90;;;11.60;85.60;;;;;;5074894;28;20927;-59
2024/03/11 11:26:02;;;;;;;5.60;3.50;;;11.40;86.40;;;;;;5074683;28;20982;-60
2024/03/11 11:28:29;;;;;;;2.63;2.42;;;11.20;87.50;;;;;;5074415;28;20400;-60
2024/03/11 11:31:14;;;;;;;2.60;1.03;;;11.00;87.50;;;;;;5074829;28;20238;-60
2024/03/11 11:33:58;;;;;;;2.83;2.50;;;10.70;88.70;;;;;;5074472;28;20427;-60
2024/03/11 11:36:32;;;;;;;1.73;1.60;;;10.60;90.00;;;;;;5074860;28;20766;-59
2024/03/11 11:39:13;;;;;;;3.40;3.10;;;10.50;90.00;;;;;;5074759;28;20414;-59
2024/03/11 11:41:43;;;;;;;4.57;3.43;;;10.60;90.10;;;;;;5074496;28;20415;-60
2024/03/11 11:44:09;;;;;;;1.80;1.63;;;10.60;90.20;;;;;;5074712;28;20849;-59
2024/03/11 11:46:48;;;;;;;1.53;1.23;;;10.50;90.30;;;;;;5074571;28;20469;-60
2024/03/11 11:49:18;;;;;;;2.65;2.45;;;10.40;90.60;;;;;;5074365;28;20173;-59
2024/03/11 11:51:51;;;;;;;2.13;1.30;;;10.30;90.60;;;;;;5074439;28;20650;-60
2024/03/11 11:54:27;;;;;;;4.10;3.38;;;10.30;91.00;;;;;;5074631;28;20202;-60
2024/03/11 11:56:59;;;;;;;7.40;4.25;;;10.20;90.60;;;;;;5074347;28;20242;-59
2024/03/11 11:59:27;;;;;;;2.58;2.35;;;10.00;91.00;;;;;;5073986;28;20686;-59
2024/03/11 12:01:53;;;;;;;2.03;1.88;;;9.70;92.20;;;;;;5074062;28;20185;-58
2024/03/11 12:04:20;;;;;;;2.10;1.90;;;9.70;92.30;;;;;;5073757;28;20683;-58
2024/03/11 12:06:49;;;;;;;1.25;1.15;;;10.00;92.00;;;;;;5074145;28;20278;-57
2024/03/11 12:09:16;;;;;;;3.17;1.75;;;10.20;92.00;;;;;;5073417;28;20570;-59
2024/03/11 12:11:47;;;;;;;2.50;2.17;;;10.30;91.50;;;;;;5073990;28;20169;-59
2024/03/11 12:14:13;;;;;;;2.88;2.03;;;10.40;91.30;;;;;;5073561;28;20479;-58
2024/03/11 12:16:39;;;;;;;1.40;1.30;;;10.40;91.10;;;;;;5084272;28;20191;-59
2024/03/11 12:19:06;;;;;;;5.63;1.87;;;10.40;91.30;;;;;;5082401;28;20165;-59
2024/03/11 12:21:38;;;;;;;1.63;1.52;;;10.40;91.30;;;;;;5083675;28;20438;-59
2024/03/11 12:24:10;;;;;;;1.20;1.10;;;10.10;91.60;;;;;;5079901;28;20235;-58
2024/03/11 12:26:36;;;;;;;2.10;1.90;;;10.00;91.80;;;;;;5064853;28;20169;-59
2024/03/11 12:29:13;;;;;;;2.13;2.03;;;9.90;92.70;;;;;;5081312;28;20177;-59
2024/03/11 12:31:39;;;;;;;1.23;1.10;;;9.90;92.90;;;;;;5083574;28;20178;-59
2024/03/11 12:34:08;;;;;;;3.07;1.77;;;10.10;92.00;;;;;;5082186;28;20424;-59
2024/03/11 12:36:39;;;;;;;1.40;1.30;;;10.30;91.60;;;;;;5083120;28;20923;-58
2024/03/11 12:39:33;;;;;;;1.07;1.00;;;10.40;91.10;;;;;;5083826;28;20486;-58
2024/03/11 12:42:01;;;;;;;1.35;1.23;;;10.60;90.80;;;;;;5082081;28;20498;-58
2024/03/11 12:44:31;;;;;;;1.47;1.37;;;10.80;90.70;;;;;;5082053;28;20546;-60
2024/03/11 12:46:58;;;;;;;1.40;1.20;;;10.90;90.50;;;;;;5083146;28;20456;-59
2024/03/11 12:49:27;;;;;;;1.57;1.47;;;11.00;90.30;;;;;;5083872;28;20415;-59
2024/03/11 12:52:01;;;;;;;1.10;1.10;;;11.00;90.00;;;;;;5091192;28;20414;-59
2024/03/11 12:54:28;;;;;;;1.10;1.10;;;10.90;90.00;;;;;;5092424;28;20798;-59
2024/03/11 12:57:11;;;;;;;0.90;0.90;;;10.90;90.20;;;;;;5093538;28;20402;-59